ジュノー の空港の天気 - METARとTAF

ジュノー国際空港 ( PAJN / JNU ) - アメリカ アラスカ州ジュノー
飛行場実況気象(Metar)
観測時間06/17 10:53 AKDT (06/17 18:53 UTC)
風向・風速東南東 5m/s
視程10km以上
天気現象
少しの雲 雲底高度 180m
全天の8割程度の雲 雲底高度 1040m
全天を覆う雲 雲底高度 1830m
気温14.4℃
湿度87%
気圧1008.5hPa
METARPAJN 171853Z 12009KT 10SM FEW006 BKN034 OVC060 14/12 A2978 RMK AO2 RAE10 SLP085 P0000 T01440122
過去の天気等 Google飛行場航空写真 Wunderground天気予報

過去48時間のMETAR

飛行場予報(TAF)
発表時間: 6/17 09:25 AKDT (6/17 17:25 UTC)
予報対象時間: 17日10時 AKDT ~ 18日10時 AKDT
風向・風速東 6m/s
視程10km以上
天気現象弱い雨
少しの雲 雲底高度 150m
全天を覆う雲 雲底高度 1070m
17日15時 AKDT から
風向・風速南 4m/s
視程10km以上
天気現象弱い雨
全天を覆う雲 雲底高度 1070m
17日19時 AKDT から
風向・風速東南東 5m/s
視程10km以上
天気現象弱いしゅう雨
全天を覆う雲 雲底高度 760m
18日1時 AKDT から
風向・風速東南東 4m/s
視程8050m
天気現象弱いしゅう雨 もや
全天の4割程度の雲 雲底高度 150m
全天を覆う雲 雲底高度 760m
PAJN 171725Z 1718/1818 10011KT P6SM -RA FEW005 OVC035
FM172300 19008KT P6SM -RA OVC035
FM180300 11009KT 6SM -SHRA OVC025
FM180900 11007KT 5SM -SHRA BR SCT005 OVC025